sensor_id;sensor_type;location;lat;lon;timestamp;pressure;altitude;pressure_sealevel;temperature;humidity
45040;BME280;30778;53.574;7.770;2022-07-10T00:01:24;102466.34;;;11.34;51.64
45040;BME280;30778;53.574;7.770;2022-07-10T00:03:49;102462.13;;;11.25;51.77
45040;BME280;30778;53.574;7.770;2022-07-10T00:06:16;102452.50;;;11.29;51.71
45040;BME280;30778;53.574;7.770;2022-07-10T00:08:41;102454.94;;;11.38;51.74
45040;BME280;30778;53.574;7.770;2022-07-10T00:11:08;102451.66;;;11.74;51.21
45040;BME280;30778;53.574;7.770;2022-07-10T00:13:35;102446.91;;;11.93;51.20
45040;BME280;30778;53.574;7.770;2022-07-10T00:16:00;102449.94;;;11.24;52.13
45040;BME280;30778;53.574;7.770;2022-07-10T00:18:29;102444.00;;;11.61;51.68
45040;BME280;30778;53.574;7.770;2022-07-10T00:20:55;102440.25;;;11.76;51.42
45040;BME280;30778;53.574;7.770;2022-07-10T00:23:21;102444.75;;;11.68;51.06
45040;BME280;30778;53.574;7.770;2022-07-10T00:25:46;102435.00;;;11.76;50.97
45040;BME280;30778;53.574;7.770;2022-07-10T00:28:12;102443.41;;;11.94;50.33
45040;BME280;30778;53.574;7.770;2022-07-10T00:30:38;102439.88;;;11.95;50.12
45040;BME280;30778;53.574;7.770;2022-07-10T00:33:04;102438.50;;;11.78;50.49
45040;BME280;30778;53.574;7.770;2022-07-10T00:35:30;102430.00;;;11.64;50.57
45040;BME280;30778;53.574;7.770;2022-07-10T00:37:55;102431.72;;;12.10;49.93
45040;BME280;30778;53.574;7.770;2022-07-10T00:40:21;102428.91;;;12.18;49.47
45040;BME280;30778;53.574;7.770;2022-07-10T00:42:47;102426.88;;;11.90;49.51
45040;BME280;30778;53.574;7.770;2022-07-10T00:45:12;102421.16;;;12.13;48.96
45040;BME280;30778;53.574;7.770;2022-07-10T00:47:38;102417.66;;;12.14;48.74
45040;BME280;30778;53.574;7.770;2022-07-10T00:50:05;102415.28;;;12.02;48.87
45040;BME280;30778;53.574;7.770;2022-07-10T00:52:33;102419.63;;;12.03;48.47
45040;BME280;30778;53.574;7.770;2022-07-10T00:55:05;102407.78;;;11.85;48.29
45040;BME280;30778;53.574;7.770;2022-07-10T00:57:31;102409.59;;;11.81;48.18
45040;BME280;30778;53.574;7.770;2022-07-10T00:59:57;102403.41;;;12.24;47.16
45040;BME280;30778;53.574;7.770;2022-07-10T01:02:23;102412.31;;;12.17;47.65
45040;BME280;30778;53.574;7.770;2022-07-10T01:04:49;102411.81;;;12.01;47.74
45040;BME280;30778;53.574;7.770;2022-07-10T01:07:14;102412.75;;;11.97;47.42
45040;BME280;30778;53.574;7.770;2022-07-10T01:09:41;102397.88;;;11.99;47.51
45040;BME280;30778;53.574;7.770;2022-07-10T01:12:08;102401.53;;;11.92;47.03
45040;BME280;30778;53.574;7.770;2022-07-10T01:14:35;102392.56;;;11.59;47.41
45040;BME280;30778;53.574;7.770;2022-07-10T01:17:04;102392.56;;;11.59;47.79
45040;BME280;30778;53.574;7.770;2022-07-10T01:19:30;102396.78;;;11.66;47.41
45040;BME280;30778;53.574;7.770;2022-07-10T01:21:56;102394.47;;;11.51;47.67
45040;BME280;30778;53.574;7.770;2022-07-10T01:24:21;102388.94;;;11.66;47.42
45040;BME280;30778;53.574;7.770;2022-07-10T01:26:47;102381.16;;;11.61;47.10
45040;BME280;30778;53.574;7.770;2022-07-10T01:29:13;102392.66;;;11.56;47.26
45040;BME280;30778;53.574;7.770;2022-07-10T01:31:38;102386.97;;;11.77;46.78
45040;BME280;30778;53.574;7.770;2022-07-10T01:34:08;102381.63;;;11.83;46.42
45040;BME280;30778;53.574;7.770;2022-07-10T01:36:37;102375.31;;;11.92;46.63
45040;BME280;30778;53.574;7.770;2022-07-10T01:39:03;102381.28;;;11.99;46.42
45040;BME280;30778;53.574;7.770;2022-07-10T01:41:29;102380.22;;;12.07;46.25
45040;BME280;30778;53.574;7.770;2022-07-10T01:43:55;102376.78;;;11.62;46.41
45040;BME280;30778;53.574;7.770;2022-07-10T01:46:20;102381.47;;;11.46;47.59
45040;BME280;30778;53.574;7.770;2022-07-10T01:48:46;102393.22;;;11.68;47.92
45040;BME280;30778;53.574;7.770;2022-07-10T01:51:12;102381.78;;;11.74;49.12
45040;BME280;30778;53.574;7.770;2022-07-10T01:53:38;102385.31;;;11.73;49.65
45040;BME280;30778;53.574;7.770;2022-07-10T01:56:07;102381.38;;;11.51;50.41
45040;BME280;30778;53.574;7.770;2022-07-10T01:58:33;102376.69;;;11.23;51.24
45040;BME280;30778;53.574;7.770;2022-07-10T02:01:00;102370.56;;;11.69;50.03
45040;BME280;30778;53.574;7.770;2022-07-10T02:03:25;102371.97;;;11.42;50.94
45040;BME280;30778;53.574;7.770;2022-07-10T02:06:11;102375.00;;;11.64;50.33
45040;BME280;30778;53.574;7.770;2022-07-10T02:08:37;102376.94;;;11.56;50.97
45040;BME280;30778;53.574;7.770;2022-07-10T02:11:02;102370.66;;;11.64;51.26
45040;BME280;30778;53.574;7.770;2022-07-10T02:13:28;102366.47;;;11.56;51.31
45040;BME280;30778;53.574;7.770;2022-07-10T02:15:54;102369.53;;;11.76;51.28
45040;BME280;30778;53.574;7.770;2022-07-10T02:18:20;102370.66;;;11.63;51.69
45040;BME280;30778;53.574;7.770;2022-07-10T02:20:46;102367.97;;;11.66;51.78
45040;BME280;30778;53.574;7.770;2022-07-10T02:23:12;102373.00;;;11.77;51.52
45040;BME280;30778;53.574;7.770;2022-07-10T02:25:38;102373.00;;;11.77;51.34
45040;BME280;30778;53.574;7.770;2022-07-10T02:28:03;102363.47;;;11.73;51.31
45040;BME280;30778;53.574;7.770;2022-07-10T02:30:29;102367.69;;;11.81;50.88
45040;BME280;30778;53.574;7.770;2022-07-10T02:32:55;102367.94;;;11.69;50.91
45040;BME280;30778;53.574;7.770;2022-07-10T02:35:20;102366.38;;;11.59;50.66
45040;BME280;30778;53.574;7.770;2022-07-10T02:37:46;102364.41;;;11.70;50.12
45040;BME280;30778;53.574;7.770;2022-07-10T02:40:11;102361.38;;;11.92;49.27
45040;BME280;30778;53.574;7.770;2022-07-10T02:42:37;102358.22;;;11.74;49.62
45040;BME280;30778;53.574;7.770;2022-07-10T02:45:03;102354.03;;;11.64;49.52
45040;BME280;30778;53.574;7.770;2022-07-10T02:47:28;102354.97;;;11.63;49.69
45040;BME280;30778;53.574;7.770;2022-07-10T02:49:54;102351.09;;;11.37;50.10
45040;BME280;30778;53.574;7.770;2022-07-10T02:52:20;102349.59;;;11.69;49.27
45040;BME280;30778;53.574;7.770;2022-07-10T02:54:45;102347.81;;;11.26;50.03
45040;BME280;30778;53.574;7.770;2022-07-10T02:57:11;102352.34;;;11.63;48.99
45040;BME280;30778;53.574;7.770;2022-07-10T02:59:36;102361.03;;;11.65;48.96
45040;BME280;30778;53.574;7.770;2022-07-10T03:02:02;102355.91;;;11.59;48.69
45040;BME280;30778;53.574;7.770;2022-07-10T03:04:28;102352.41;;;11.60;48.76
45040;BME280;30778;53.574;7.770;2022-07-10T03:06:53;102360.28;;;11.58;48.55
45040;BME280;30778;53.574;7.770;2022-07-10T03:09:19;102358.38;;;11.66;48.10
45040;BME280;30778;53.574;7.770;2022-07-10T03:11:44;102356.63;;;11.65;48.13
45040;BME280;30778;53.574;7.770;2022-07-10T03:14:10;102359.28;;;11.64;48.18
45040;BME280;30778;53.574;7.770;2022-07-10T03:16:36;102360.38;;;11.54;48.52
45040;BME280;30778;53.574;7.770;2022-07-10T03:19:01;102359.34;;;11.61;48.33
45040;BME280;30778;53.574;7.770;2022-07-10T03:21:27;102355.66;;;11.71;48.46
45040;BME280;30778;53.574;7.770;2022-07-10T03:23:53;102350.06;;;11.90;47.96
45040;BME280;30778;53.574;7.770;2022-07-10T03:26:18;102349.94;;;11.96;48.00
45040;BME280;30778;53.574;7.770;2022-07-10T03:28:43;102348.50;;;11.81;48.73
45040;BME280;30778;53.574;7.770;2022-07-10T03:31:09;102338.41;;;12.03;48.27
45040;BME280;30778;53.574;7.770;2022-07-10T03:33:34;102348.72;;;11.68;49.08
45040;BME280;30778;53.574;7.770;2022-07-10T03:36:00;102345.63;;;11.50;49.77
45040;BME280;30778;53.574;7.770;2022-07-10T03:38:27;102339.03;;;11.72;48.84
45040;BME280;30778;53.574;7.770;2022-07-10T03:40:53;102349.03;;;11.95;48.71
45040;BME280;30778;53.574;7.770;2022-07-10T03:43:18;102344.47;;;12.05;48.29
45040;BME280;30778;53.574;7.770;2022-07-10T03:45:44;102336.00;;;11.94;48.19
45040;BME280;30778;53.574;7.770;2022-07-10T03:48:09;102347.56;;;12.22;47.65
45040;BME280;30778;53.574;7.770;2022-07-10T03:50:34;102345.53;;;11.96;47.88
45040;BME280;30778;53.574;7.770;2022-07-10T03:53:00;102344.13;;;12.20;47.42
45040;BME280;30778;53.574;7.770;2022-07-10T03:55:25;102345.53;;;11.96;47.42
45040;BME280;30778;53.574;7.770;2022-07-10T03:57:51;102350.06;;;11.90;47.45
45040;BME280;30778;53.574;7.770;2022-07-10T04:00:30;102347.63;;;12.19;46.87
45040;BME280;30778;53.574;7.770;2022-07-10T04:03:02;102350.28;;;12.18;46.99
45040;BME280;30778;53.574;7.770;2022-07-10T04:05:28;102341.63;;;12.52;46.27
45040;BME280;30778;53.574;7.770;2022-07-10T04:07:55;102337.41;;;12.44;46.33
45040;BME280;30778;53.574;7.770;2022-07-10T04:10:23;102342.72;;;12.41;46.88
45040;BME280;30778;53.574;7.770;2022-07-10T04:12:49;102335.38;;;12.56;46.50
45040;BME280;30778;53.574;7.770;2022-07-10T04:15:15;102338.09;;;12.51;47.08
45040;BME280;30778;53.574;7.770;2022-07-10T04:17:41;102336.66;;;12.39;47.60
45040;BME280;30778;53.574;7.770;2022-07-10T04:20:07;102332.75;;;12.20;48.13
45040;BME280;30778;53.574;7.770;2022-07-10T04:22:33;102332.47;;;12.32;47.98
45040;BME280;30778;53.574;7.770;2022-07-10T04:24:59;102335.38;;;12.56;47.43
45040;BME280;30778;53.574;7.770;2022-07-10T04:27:24;102336.75;;;12.72;47.00
45040;BME280;30778;53.574;7.770;2022-07-10T04:29:49;102335.91;;;12.34;48.20
45040;BME280;30778;53.574;7.770;2022-07-10T04:32:16;102342.41;;;12.18;49.09
45040;BME280;30778;53.574;7.770;2022-07-10T04:34:41;102341.44;;;12.22;49.35
45040;BME280;30778;53.574;7.770;2022-07-10T04:37:07;102348.91;;;12.01;50.64
45040;BME280;30778;53.574;7.770;2022-07-10T04:39:37;102351.50;;;12.03;51.30
45040;BME280;30778;53.574;7.770;2022-07-10T04:42:04;102347.59;;;11.82;51.83
45040;BME280;30778;53.574;7.770;2022-07-10T04:44:30;102346.06;;;11.70;52.64
45040;BME280;30778;53.574;7.770;2022-07-10T04:46:55;102341.22;;;11.94;52.54
45040;BME280;30778;53.574;7.770;2022-07-10T04:49:21;102343.22;;;11.82;52.64
45040;BME280;30778;53.574;7.770;2022-07-10T04:51:46;102346.03;;;12.12;52.29
45040;BME280;30778;53.574;7.770;2022-07-10T04:54:12;102342.94;;;11.95;52.22
45040;BME280;30778;53.574;7.770;2022-07-10T04:56:37;102338.56;;;12.33;51.80
45040;BME280;30778;53.574;7.770;2022-07-10T04:59:03;102343.81;;;12.33;50.80
45040;BME280;30778;53.574;7.770;2022-07-10T05:01:28;102340.00;;;12.46;50.11
45040;BME280;30778;53.574;7.770;2022-07-10T05:03:54;102334.22;;;12.67;49.04
45040;BME280;30778;53.574;7.770;2022-07-10T05:06:20;102335.75;;;13.40;46.92
45040;BME280;30778;53.574;7.770;2022-07-10T05:08:45;102333.78;;;13.48;45.80
45040;BME280;30778;53.574;7.770;2022-07-10T05:11:10;102337.50;;;13.10;45.94
45040;BME280;30778;53.574;7.770;2022-07-10T05:13:36;102342.47;;;13.21;46.16
45040;BME280;30778;53.574;7.770;2022-07-10T05:16:03;102343.44;;;12.48;46.98
45040;BME280;30778;53.574;7.770;2022-07-10T05:18:29;102340.50;;;12.96;46.18
45040;BME280;30778;53.574;7.770;2022-07-10T05:20:55;102341.38;;;12.25;45.88
45040;BME280;30778;53.574;7.770;2022-07-10T05:23:20;102346.94;;;13.16;44.37
45040;BME280;30778;53.574;7.770;2022-07-10T05:25:46;102344.63;;;14.52;40.99
45040;BME280;30778;53.574;7.770;2022-07-10T05:28:12;102343.13;;;14.45;40.94
45040;BME280;30778;53.574;7.770;2022-07-10T05:30:41;102340.06;;;14.02;42.08
45040;BME280;30778;53.574;7.770;2022-07-10T05:33:06;102345.91;;;13.23;44.52
45040;BME280;30778;53.574;7.770;2022-07-10T05:35:32;102340.72;;;12.87;45.71
45040;BME280;30778;53.574;7.770;2022-07-10T05:37:58;102334.59;;;12.88;45.97
45040;BME280;30778;53.574;7.770;2022-07-10T05:40:23;102335.91;;;12.72;46.53
45040;BME280;30778;53.574;7.770;2022-07-10T05:42:49;102333.59;;;12.92;46.33
45040;BME280;30778;53.574;7.770;2022-07-10T05:45:15;102337.91;;;12.95;46.10
45040;BME280;30778;53.574;7.770;2022-07-10T05:47:40;102340.91;;;12.81;46.46
45040;BME280;30778;53.574;7.770;2022-07-10T05:50:06;102350.44;;;12.85;46.21
45040;BME280;30778;53.574;7.770;2022-07-10T05:52:31;102351.31;;;12.84;45.46
45040;BME280;30778;53.574;7.770;2022-07-10T05:54:57;102343.44;;;12.84;45.38
45040;BME280;30778;53.574;7.770;2022-07-10T05:57:23;102341.31;;;12.62;46.13
45040;BME280;30778;53.574;7.770;2022-07-10T05:59:49;102346.94;;;13.16;44.67
45040;BME280;30778;53.574;7.770;2022-07-10T06:02:15;102347.41;;;13.63;43.23
45040;BME280;30778;53.574;7.770;2022-07-10T06:04:41;102344.41;;;14.85;41.15
45040;BME280;30778;53.574;7.770;2022-07-10T06:07:07;102329.91;;;16.79;36.57
45040;BME280;30778;53.574;7.770;2022-07-10T06:09:34;102343.69;;;15.77;36.64
45040;BME280;30778;53.574;7.770;2022-07-10T06:12:00;102345.41;;;15.06;38.61
45040;BME280;30778;53.574;7.770;2022-07-10T06:14:25;102343.16;;;14.43;40.19
45040;BME280;30778;53.574;7.770;2022-07-10T06:16:51;102345.38;;;14.01;41.57
45040;BME280;30778;53.574;7.770;2022-07-10T06:19:17;102344.22;;;14.38;41.29
45040;BME280;30778;53.574;7.770;2022-07-10T06:21:44;102345.31;;;15.09;39.91
45040;BME280;30778;53.574;7.770;2022-07-10T06:24:10;102343.72;;;15.53;39.08
45040;BME280;30778;53.574;7.770;2022-07-10T06:26:35;102335.00;;;15.28;39.76
45040;BME280;30778;53.574;7.770;2022-07-10T06:29:01;102333.06;;;14.29;40.95
45040;BME280;30778;53.574;7.770;2022-07-10T06:31:27;102344.53;;;14.55;40.75
45040;BME280;30778;53.574;7.770;2022-07-10T06:33:52;102339.50;;;14.99;39.82
45040;BME280;30778;53.574;7.770;2022-07-10T06:36:18;102347.72;;;14.65;40.46
45040;BME280;30778;53.574;7.770;2022-07-10T06:38:43;102348.63;;;14.09;41.80
45040;BME280;30778;53.574;7.770;2022-07-10T06:41:09;102353.97;;;13.78;43.38
45040;BME280;30778;53.574;7.770;2022-07-10T06:43:34;102356.19;;;13.62;44.00
45040;BME280;30778;53.574;7.770;2022-07-10T06:46:00;102361.97;;;13.75;44.02
45040;BME280;30778;53.574;7.770;2022-07-10T06:48:27;102358.34;;;13.47;44.92
45040;BME280;30778;53.574;7.770;2022-07-10T06:50:53;102359.00;;;13.85;43.96
45040;BME280;30778;53.574;7.770;2022-07-10T06:53:19;102355.22;;;13.94;43.25
45040;BME280;30778;53.574;7.770;2022-07-10T06:55:50;102357.03;;;14.48;42.42
45040;BME280;30778;53.574;7.770;2022-07-10T06:58:16;102351.84;;;16.59;38.74
45040;BME280;30778;53.574;7.770;2022-07-10T07:00:41;102348.69;;;17.90;34.35
45040;BME280;30778;53.574;7.770;2022-07-10T07:03:07;102348.81;;;18.59;33.15
45040;BME280;30778;53.574;7.770;2022-07-10T07:05:32;102338.31;;;17.47;33.95
45040;BME280;30778;53.574;7.770;2022-07-10T07:07:58;102336.47;;;17.10;34.78
45040;BME280;30778;53.574;7.770;2022-07-10T07:10:24;102341.47;;;17.55;34.07
45040;BME280;30778;53.574;7.770;2022-07-10T07:12:49;102346.63;;;17.58;34.21
45040;BME280;30778;53.574;7.770;2022-07-10T07:15:15;102355.41;;;17.78;33.92
45040;BME280;30778;53.574;7.770;2022-07-10T07:17:42;102354.94;;;16.69;34.42
45040;BME280;30778;53.574;7.770;2022-07-10T07:20:34;102353.75;;;15.89;35.78
45040;BME280;30778;53.574;7.770;2022-07-10T07:23:19;102355.78;;;15.83;36.24
45040;BME280;30778;53.574;7.770;2022-07-10T07:25:45;102359.13;;;15.86;36.69
45040;BME280;30778;53.574;7.770;2022-07-10T07:28:15;102358.41;;;15.83;37.85
45040;BME280;30778;53.574;7.770;2022-07-10T07:30:44;102350.56;;;15.34;38.47
45040;BME280;30778;53.574;7.770;2022-07-10T07:33:10;102363.53;;;14.90;38.88
45040;BME280;30778;53.574;7.770;2022-07-10T07:35:35;102366.72;;;15.25;38.92
45040;BME280;30778;53.574;7.770;2022-07-10T07:38:02;102357.59;;;15.35;38.98
45040;BME280;30778;53.574;7.770;2022-07-10T07:40:28;102361.00;;;15.37;38.68
45040;BME280;30778;53.574;7.770;2022-07-10T07:42:55;102361.75;;;15.15;39.21
45040;BME280;30778;53.574;7.770;2022-07-10T07:45:22;102365.53;;;15.08;39.79
45040;BME280;30778;53.574;7.770;2022-07-10T07:47:50;102366.00;;;15.20;39.28
45040;BME280;30778;53.574;7.770;2022-07-10T07:50:19;102364.31;;;14.39;40.75
45040;BME280;30778;53.574;7.770;2022-07-10T07:52:45;102367.19;;;15.11;40.05
45040;BME280;30778;53.574;7.770;2022-07-10T07:55:12;102369.50;;;14.95;40.23
45040;BME280;30778;53.574;7.770;2022-07-10T07:57:41;102374.16;;;16.30;37.88
45040;BME280;30778;53.574;7.770;2022-07-10T08:00:07;102365.75;;;18.01;34.65
45040;BME280;30778;53.574;7.770;2022-07-10T08:02:40;102358.03;;;19.20;32.37
45040;BME280;30778;53.574;7.770;2022-07-10T08:05:06;102354.59;;;19.67;30.85
45040;BME280;30778;53.574;7.770;2022-07-10T08:07:53;102355.47;;;20.76;28.93
45040;BME280;30778;53.574;7.770;2022-07-10T08:10:22;102345.66;;;22.18;25.19
45040;BME280;30778;53.574;7.770;2022-07-10T08:12:48;102337.22;;;21.85;25.95
45040;BME280;30778;53.574;7.770;2022-07-10T08:15:18;102336.81;;;20.92;27.40
45040;BME280;30778;53.574;7.770;2022-07-10T08:17:55;102352.91;;;19.17;29.68
45040;BME280;30778;53.574;7.770;2022-07-10T08:20:21;102348.13;;;17.83;32.43
45040;BME280;30778;53.574;7.770;2022-07-10T08:22:47;102348.94;;;16.65;34.25
45040;BME280;30778;53.574;7.770;2022-07-10T08:25:14;102342.75;;;16.02;36.60
45040;BME280;30778;53.574;7.770;2022-07-10T08:27:40;102344.84;;;15.23;38.00
45040;BME280;30778;53.574;7.770;2022-07-10T08:30:07;102342.69;;;15.57;37.77
45040;BME280;30778;53.574;7.770;2022-07-10T08:32:37;102342.97;;;15.26;38.51
45040;BME280;30778;53.574;7.770;2022-07-10T08:35:04;102344.97;;;15.18;39.30
45040;BME280;30778;53.574;7.770;2022-07-10T08:37:29;102352.88;;;15.43;39.70
45040;BME280;30778;53.574;7.770;2022-07-10T08:39:55;102356.31;;;14.70;40.84
45040;BME280;30778;53.574;7.770;2022-07-10T08:42:21;102358.84;;;14.98;41.04
45040;BME280;30778;53.574;7.770;2022-07-10T08:44:47;102357.03;;;15.00;41.09
45040;BME280;30778;53.574;7.770;2022-07-10T08:47:13;102365.09;;;14.95;41.50
45040;BME280;30778;53.574;7.770;2022-07-10T08:49:46;102366.09;;;14.66;42.28
45040;BME280;30778;53.574;7.770;2022-07-10T08:52:31;102373.06;;;14.92;42.00
45040;BME280;30778;53.574;7.770;2022-07-10T08:54:58;102376.13;;;14.55;43.82
45040;BME280;30778;53.574;7.770;2022-07-10T08:57:25;102379.06;;;13.88;46.55
45040;BME280;30778;53.574;7.770;2022-07-10T08:59:51;102369.38;;;14.18;46.37
45040;BME280;30778;53.574;7.770;2022-07-10T09:02:17;102368.47;;;14.47;46.33
45040;BME280;30778;53.574;7.770;2022-07-10T09:04:42;102380.59;;;14.51;45.78
45040;BME280;30778;53.574;7.770;2022-07-10T09:07:08;102387.19;;;14.10;47.21
45040;BME280;30778;53.574;7.770;2022-07-10T09:09:53;102376.13;;;14.55;46.52
45040;BME280;30778;53.574;7.770;2022-07-10T09:12:23;102385.38;;;14.67;45.92
45040;BME280;30778;53.574;7.770;2022-07-10T09:14:50;102389.97;;;14.60;46.10
45040;BME280;30778;53.574;7.770;2022-07-10T09:17:17;102374.56;;;14.74;44.72
45040;BME280;30778;53.574;7.770;2022-07-10T09:19:43;102379.84;;;14.74;44.59
45040;BME280;30778;53.574;7.770;2022-07-10T09:22:10;102372.25;;;14.65;44.41
45040;BME280;30778;53.574;7.770;2022-07-10T09:24:40;102370.75;;;15.35;42.63
45040;BME280;30778;53.574;7.770;2022-07-10T09:27:07;102374.53;;;15.51;42.67
45040;BME280;30778;53.574;7.770;2022-07-10T09:29:45;102370.28;;;15.47;42.40
45040;BME280;30778;53.574;7.770;2022-07-10T09:32:12;102373.56;;;15.54;42.43
45040;BME280;30778;53.574;7.770;2022-07-10T09:34:39;102369.94;;;15.56;42.77
45040;BME280;30778;53.574;7.770;2022-07-10T09:37:26;102369.22;;;15.75;42.47
45040;BME280;30778;53.574;7.770;2022-07-10T09:42:43;102364.59;;;16.05;42.10
45040;BME280;30778;53.574;7.770;2022-07-10T09:47:38;102364.97;;;16.82;40.73
45040;BME280;30778;53.574;7.770;2022-07-10T09:50:08;102368.63;;;16.58;39.07
45040;BME280;30778;53.574;7.770;2022-07-10T09:52:45;102361.59;;;16.57;38.08
45040;BME280;30778;53.574;7.770;2022-07-10T09:55:13;102372.69;;;16.00;39.06
45040;BME280;30778;53.574;7.770;2022-07-10T09:57:40;102370.59;;;15.85;39.39
45040;BME280;30778;53.574;7.770;2022-07-10T10:00:09;102373.91;;;15.90;40.38
45040;BME280;30778;53.574;7.770;2022-07-10T10:02:38;102368.84;;;15.13;41.54
45040;BME280;30778;53.574;7.770;2022-07-10T10:05:05;102374.28;;;14.84;43.02
45040;BME280;30778;53.574;7.770;2022-07-10T10:07:32;102371.53;;;15.12;43.19
45040;BME280;30778;53.574;7.770;2022-07-10T10:10:01;102366.66;;;15.50;42.17
45040;BME280;30778;53.574;7.770;2022-07-10T10:12:32;102381.97;;;14.63;45.23
45040;BME280;30778;53.574;7.770;2022-07-10T10:15:01;102384.91;;;14.54;46.92
45040;BME280;30778;53.574;7.770;2022-07-10T10:17:28;102377.19;;;14.21;47.92
45040;BME280;30778;53.574;7.770;2022-07-10T10:19:55;102376.59;;;14.40;47.95
45040;BME280;30778;53.574;7.770;2022-07-10T10:22:43;102383.78;;;14.34;48.05
45040;BME280;30778;53.574;7.770;2022-07-10T10:25:11;102374.59;;;14.48;48.04
45040;BME280;30778;53.574;7.770;2022-07-10T10:27:39;102380.81;;;14.17;47.94
45040;BME280;30778;53.574;7.770;2022-07-10T10:30:06;102381.47;;;13.96;49.49
45040;BME280;30778;53.574;7.770;2022-07-10T10:32:32;102385.63;;;12.76;52.62
45040;BME280;30778;53.574;7.770;2022-07-10T10:34:58;102388.25;;;14.03;49.76
45040;BME280;30778;53.574;7.770;2022-07-10T10:37:36;102383.78;;;14.34;48.19
45040;BME280;30778;53.574;7.770;2022-07-10T10:40:02;102385.03;;;14.51;47.49
45040;BME280;30778;53.574;7.770;2022-07-10T10:42:39;102377.88;;;14.26;46.87
45040;BME280;30778;53.574;7.770;2022-07-10T10:45:33;102375.47;;;15.00;46.35
45040;BME280;30778;53.574;7.770;2022-07-10T10:48:08;102378.31;;;14.94;45.35
45040;BME280;30778;53.574;7.770;2022-07-10T10:50:48;102384.44;;;15.20;44.72
45040;BME280;30778;53.574;7.770;2022-07-10T10:53:48;102379.78;;;14.76;46.34
45040;BME280;30778;53.574;7.770;2022-07-10T10:58:36;102368.47;;;15.73;44.67
45040;BME280;30778;53.574;7.770;2022-07-10T11:01:27;102372.31;;;16.74;41.69
45040;BME280;30778;53.574;7.770;2022-07-10T11:06:41;102361.94;;;18.26;40.16
45040;BME280;30778;53.574;7.770;2022-07-10T11:12:08;102363.34;;;16.36;40.21
45040;BME280;30778;53.574;7.770;2022-07-10T11:14:35;102374.88;;;15.17;43.81
45040;BME280;30778;53.574;7.770;2022-07-10T11:17:02;102374.78;;;14.95;45.33
45040;BME280;30778;53.574;7.770;2022-07-10T11:19:29;102384.88;;;14.55;47.46
45040;BME280;30778;53.574;7.770;2022-07-10T11:24:59;102386.84;;;14.75;49.43
45040;BME280;30778;53.574;7.770;2022-07-10T11:29:59;102369.66;;;14.09;51.25
45040;BME280;30778;53.574;7.770;2022-07-10T11:32:25;102372.88;;;14.47;50.54
45040;BME280;30778;53.574;7.770;2022-07-10T11:34:51;102370.63;;;14.61;49.66
45040;BME280;30778;53.574;7.770;2022-07-10T11:37:17;102368.72;;;15.16;47.69
45040;BME280;30778;53.574;7.770;2022-07-10T11:39:43;102371.31;;;15.67;46.72
45040;BME280;30778;53.574;7.770;2022-07-10T11:42:09;102377.97;;;16.23;45.17
45040;BME280;30778;53.574;7.770;2022-07-10T11:44:34;102372.53;;;16.48;43.45
45040;BME280;30778;53.574;7.770;2022-07-10T11:47:00;102375.44;;;15.74;43.35
45040;BME280;30778;53.574;7.770;2022-07-10T11:49:28;102371.34;;;15.16;43.17
45040;BME280;30778;53.574;7.770;2022-07-10T11:51:53;102385.03;;;14.51;45.02
45040;BME280;30778;53.574;7.770;2022-07-10T11:54:21;102388.00;;;13.82;48.44
45040;BME280;30778;53.574;7.770;2022-07-10T11:56:51;102387.72;;;13.62;50.90
45040;BME280;30778;53.574;7.770;2022-07-10T11:59:18;102384.28;;;13.60;51.81
45040;BME280;30778;53.574;7.770;2022-07-10T12:01:50;102391.66;;;13.45;51.18
45040;BME280;30778;53.574;7.770;2022-07-10T12:04:21;102395.47;;;14.24;50.35
45040;BME280;30778;53.574;7.770;2022-07-10T12:06:52;102392.69;;;14.01;50.01
45040;BME280;30778;53.574;7.770;2022-07-10T12:09:22;102388.75;;;14.97;48.40
45040;BME280;30778;53.574;7.770;2022-07-10T12:12:05;102379.56;;;16.05;44.86
45040;BME280;30778;53.574;7.770;2022-07-10T12:14:31;102376.75;;;16.31;44.69
45040;BME280;30778;53.574;7.770;2022-07-10T12:16:58;102379.72;;;16.44;44.29
45040;BME280;30778;53.574;7.770;2022-07-10T12:19:26;102369.41;;;15.70;45.43
45040;BME280;30778;53.574;7.770;2022-07-10T12:21:53;102375.19;;;16.68;43.56
45040;BME280;30778;53.574;7.770;2022-07-10T12:24:19;102383.00;;;17.33;42.29
45040;BME280;30778;53.574;7.770;2022-07-10T12:26:46;102377.22;;;17.83;41.00
45040;BME280;30778;53.574;7.770;2022-07-10T12:31:44;102382.38;;;18.59;39.46
45040;BME280;30778;53.574;7.770;2022-07-10T12:34:11;102372.94;;;18.53;39.75
45040;BME280;30778;53.574;7.770;2022-07-10T12:36:50;102370.19;;;18.20;38.98
45040;BME280;30778;53.574;7.770;2022-07-10T12:39:24;102372.56;;;17.88;39.95
45040;BME280;30778;53.574;7.770;2022-07-10T12:44:42;102367.19;;;17.71;39.52
45040;BME280;30778;53.574;7.770;2022-07-10T12:47:10;102369.19;;;17.84;37.64
45040;BME280;30778;53.574;7.770;2022-07-10T12:57:32;102361.09;;;18.06;37.47
45040;BME280;30778;53.574;7.770;2022-07-10T13:00:05;102370.44;;;17.38;37.58
45040;BME280;30778;53.574;7.770;2022-07-10T13:02:31;102365.16;;;17.58;38.19
45040;BME280;30778;53.574;7.770;2022-07-10T13:04:58;102362.47;;;17.96;37.35
45040;BME280;30778;53.574;7.770;2022-07-10T13:07:34;102369.50;;;18.34;37.17
45040;BME280;30778;53.574;7.770;2022-07-10T13:10:06;102360.69;;;18.33;36.17
45040;BME280;30778;53.574;7.770;2022-07-10T13:12:32;102366.50;;;18.22;36.42
45040;BME280;30778;53.574;7.770;2022-07-10T13:14:57;102362.28;;;17.23;38.92
45040;BME280;30778;53.574;7.770;2022-07-10T13:17:23;102367.28;;;17.30;38.89
45040;BME280;30778;53.574;7.770;2022-07-10T13:19:50;102366.69;;;17.62;38.21
45040;BME280;30778;53.574;7.770;2022-07-10T13:22:16;102370.94;;;17.46;37.45
45040;BME280;30778;53.574;7.770;2022-07-10T13:24:41;102376.63;;;17.57;38.20